sensor_id;sensor_type;location;lat;lon;timestamp;temperature;humidity
15111;DHT22;7656;51.954;7.998;2022-09-09T00:13:52;17.00;99.90
15111;DHT22;7656;51.954;7.998;2022-09-09T00:27:47;17.20;99.90
15111;DHT22;7656;51.954;7.998;2022-09-09T00:32:17;17.10;99.90
15111;DHT22;7656;51.954;7.998;2022-09-09T00:36:40;17.20;99.90
15111;DHT22;7656;51.954;7.998;2022-09-09T00:41:20;17.30;99.90
15111;DHT22;7656;51.954;7.998;2022-09-09T00:55:34;17.20;99.90
15111;DHT22;7656;51.954;7.998;2022-09-09T01:00:27;17.40;99.90
15111;DHT22;7656;51.954;7.998;2022-09-09T01:04:50;17.40;99.90
15111;DHT22;7656;51.954;7.998;2022-09-09T01:19:18;16.90;99.90
15111;DHT22;7656;51.954;7.998;2022-09-09T01:29:07;17.10;99.90
15111;DHT22;7656;51.954;7.998;2022-09-09T01:33:32;17.10;99.90
15111;DHT22;7656;51.954;7.998;2022-09-09T01:37:53;16.90;99.90
15111;DHT22;7656;51.954;7.998;2022-09-09T01:42:16;17.00;99.90
15111;DHT22;7656;51.954;7.998;2022-09-09T01:46:39;17.00;99.90
15111;DHT22;7656;51.954;7.998;2022-09-09T01:51:08;16.90;99.90
15111;DHT22;7656;51.954;7.998;2022-09-09T01:55:38;16.80;99.90
15111;DHT22;7656;51.954;7.998;2022-09-09T02:00:11;16.90;99.90
15111;DHT22;7656;51.954;7.998;2022-09-09T02:09:11;16.60;99.90
15111;DHT22;7656;51.954;7.998;2022-09-09T02:13:37;16.60;99.90
15111;DHT22;7656;51.954;7.998;2022-09-09T02:18:06;16.80;99.90
15111;DHT22;7656;51.954;7.998;2022-09-09T02:22:30;16.80;99.90
15111;DHT22;7656;51.954;7.998;2022-09-09T02:26:54;17.00;99.90
15111;DHT22;7656;51.954;7.998;2022-09-09T02:31:21;17.00;99.90
15111;DHT22;7656;51.954;7.998;2022-09-09T02:35:45;17.00;99.90
15111;DHT22;7656;51.954;7.998;2022-09-09T02:40:13;16.80;99.90
15111;DHT22;7656;51.954;7.998;2022-09-09T02:44:41;16.80;99.90
15111;DHT22;7656;51.954;7.998;2022-09-09T02:49:21;16.80;99.90
15111;DHT22;7656;51.954;7.998;2022-09-09T02:54:01;16.90;99.90
15111;DHT22;7656;51.954;7.998;2022-09-09T02:58:29;17.00;99.90
15111;DHT22;7656;51.954;7.998;2022-09-09T03:02:56;16.80;99.90
15111;DHT22;7656;51.954;7.998;2022-09-09T03:07:18;16.80;99.90
15111;DHT22;7656;51.954;7.998;2022-09-09T03:11:41;17.00;99.90
15111;DHT22;7656;51.954;7.998;2022-09-09T03:16:02;16.90;99.90
15111;DHT22;7656;51.954;7.998;2022-09-09T03:20:29;16.90;99.90
15111;DHT22;7656;51.954;7.998;2022-09-09T03:24:52;16.80;99.90
15111;DHT22;7656;51.954;7.998;2022-09-09T03:29:13;16.70;99.90
15111;DHT22;7656;51.954;7.998;2022-09-09T03:33:37;16.70;99.90
15111;DHT22;7656;51.954;7.998;2022-09-09T03:38:00;16.80;99.90
15111;DHT22;7656;51.954;7.998;2022-09-09T03:42:23;16.60;99.90
15111;DHT22;7656;51.954;7.998;2022-09-09T03:46:47;16.50;99.90
15111;DHT22;7656;51.954;7.998;2022-09-09T03:51:09;16.30;99.90
15111;DHT22;7656;51.954;7.998;2022-09-09T03:55:31;16.40;99.90
15111;DHT22;7656;51.954;7.998;2022-09-09T03:59:53;16.60;99.90
15111;DHT22;7656;51.954;7.998;2022-09-09T04:04:16;16.60;99.90
15111;DHT22;7656;51.954;7.998;2022-09-09T04:08:37;16.60;99.90
15111;DHT22;7656;51.954;7.998;2022-09-09T04:12:59;16.60;99.90
15111;DHT22;7656;51.954;7.998;2022-09-09T04:17:21;16.60;99.90
15111;DHT22;7656;51.954;7.998;2022-09-09T04:21:43;16.60;99.90
15111;DHT22;7656;51.954;7.998;2022-09-09T04:26:04;16.70;99.90
15111;DHT22;7656;51.954;7.998;2022-09-09T04:30:27;16.80;99.90
15111;DHT22;7656;51.954;7.998;2022-09-09T04:34:48;16.60;99.90
15111;DHT22;7656;51.954;7.998;2022-09-09T04:39:10;16.20;99.90
15111;DHT22;7656;51.954;7.998;2022-09-09T04:43:31;16.30;99.90
15111;DHT22;7656;51.954;7.998;2022-09-09T04:47:54;16.20;99.90
15111;DHT22;7656;51.954;7.998;2022-09-09T04:52:16;16.30;99.90
15111;DHT22;7656;51.954;7.998;2022-09-09T04:56:38;16.30;99.90
15111;DHT22;7656;51.954;7.998;2022-09-09T05:01:08;16.50;99.90
15111;DHT22;7656;51.954;7.998;2022-09-09T05:05:35;16.60;99.90
15111;DHT22;7656;51.954;7.998;2022-09-09T05:09:57;16.50;99.90
15111;DHT22;7656;51.954;7.998;2022-09-09T05:14:19;16.50;99.90
15111;DHT22;7656;51.954;7.998;2022-09-09T05:18:41;16.50;99.90
15111;DHT22;7656;51.954;7.998;2022-09-09T05:23:04;16.40;99.90
15111;DHT22;7656;51.954;7.998;2022-09-09T05:27:27;16.40;99.90
15111;DHT22;7656;51.954;7.998;2022-09-09T05:31:49;16.40;99.90
15111;DHT22;7656;51.954;7.998;2022-09-09T05:36:16;16.40;99.90
15111;DHT22;7656;51.954;7.998;2022-09-09T05:40:47;16.50;99.90
15111;DHT22;7656;51.954;7.998;2022-09-09T05:45:11;16.60;99.90
15111;DHT22;7656;51.954;7.998;2022-09-09T05:49:33;16.60;99.90
15111;DHT22;7656;51.954;7.998;2022-09-09T05:53:54;16.70;99.90
15111;DHT22;7656;51.954;7.998;2022-09-09T05:58:25;16.80;99.90
15111;DHT22;7656;51.954;7.998;2022-09-09T06:02:51;17.00;99.90
15111;DHT22;7656;51.954;7.998;2022-09-09T06:07:14;17.20;99.90
15111;DHT22;7656;51.954;7.998;2022-09-09T06:11:37;17.40;99.90
15111;DHT22;7656;51.954;7.998;2022-09-09T06:15:59;17.50;99.90
15111;DHT22;7656;51.954;7.998;2022-09-09T06:20:22;17.80;99.90
15111;DHT22;7656;51.954;7.998;2022-09-09T06:24:44;18.00;99.90
15111;DHT22;7656;51.954;7.998;2022-09-09T06:29:05;18.20;99.90
15111;DHT22;7656;51.954;7.998;2022-09-09T06:33:31;18.40;99.90
15111;DHT22;7656;51.954;7.998;2022-09-09T06:37:53;18.30;99.90
15111;DHT22;7656;51.954;7.998;2022-09-09T06:42:14;18.30;99.90
15111;DHT22;7656;51.954;7.998;2022-09-09T06:46:50;18.40;99.90
15111;DHT22;7656;51.954;7.998;2022-09-09T06:51:15;18.60;99.90
15111;DHT22;7656;51.954;7.998;2022-09-09T06:55:41;18.50;99.90
15111;DHT22;7656;51.954;7.998;2022-09-09T07:00:07;18.40;99.90
15111;DHT22;7656;51.954;7.998;2022-09-09T07:04:29;18.40;99.90
15111;DHT22;7656;51.954;7.998;2022-09-09T07:08:59;18.30;99.90
15111;DHT22;7656;51.954;7.998;2022-09-09T07:13:24;18.20;99.90
15111;DHT22;7656;51.954;7.998;2022-09-09T07:17:49;18.60;99.90
15111;DHT22;7656;51.954;7.998;2022-09-09T07:22:11;18.60;99.90
15111;DHT22;7656;51.954;7.998;2022-09-09T07:26:33;18.60;99.90
15111;DHT22;7656;51.954;7.998;2022-09-09T07:31:01;18.70;99.90
15111;DHT22;7656;51.954;7.998;2022-09-09T07:35:24;19.00;99.90
15111;DHT22;7656;51.954;7.998;2022-09-09T07:39:45;19.20;99.90
15111;DHT22;7656;51.954;7.998;2022-09-09T07:44:19;19.40;99.90
15111;DHT22;7656;51.954;7.998;2022-09-09T07:49:20;19.30;99.90
15111;DHT22;7656;51.954;7.998;2022-09-09T07:53:43;19.70;99.90
15111;DHT22;7656;51.954;7.998;2022-09-09T07:58:05;20.10;99.90
15111;DHT22;7656;51.954;7.998;2022-09-09T08:02:27;20.20;99.90
15111;DHT22;7656;51.954;7.998;2022-09-09T08:06:53;20.20;99.90
15111;DHT22;7656;51.954;7.998;2022-09-09T08:11:18;20.70;99.90
15111;DHT22;7656;51.954;7.998;2022-09-09T08:15:39;20.60;99.90
15111;DHT22;7656;51.954;7.998;2022-09-09T08:20:02;20.70;99.90
15111;DHT22;7656;51.954;7.998;2022-09-09T08:24:27;21.40;99.90
15111;DHT22;7656;51.954;7.998;2022-09-09T08:28:50;21.30;99.90
15111;DHT22;7656;51.954;7.998;2022-09-09T08:33:13;20.70;99.90
15111;DHT22;7656;51.954;7.998;2022-09-09T08:37:35;20.10;99.90
15111;DHT22;7656;51.954;7.998;2022-09-09T08:46:33;20.40;99.90
15111;DHT22;7656;51.954;7.998;2022-09-09T08:51:00;20.40;99.90
15111;DHT22;7656;51.954;7.998;2022-09-09T09:00:12;20.50;99.90
15111;DHT22;7656;51.954;7.998;2022-09-09T09:18:49;27.30;99.90
15111;DHT22;7656;51.954;7.998;2022-09-09T09:32:22;30.60;99.90
15111;DHT22;7656;51.954;7.998;2022-09-09T09:36:59;29.50;99.90
15111;DHT22;7656;51.954;7.998;2022-09-09T09:50:22;32.40;99.00
15111;DHT22;7656;51.954;7.998;2022-09-09T09:54:46;30.30;99.90
15111;DHT22;7656;51.954;7.998;2022-09-09T10:04:02;29.80;99.90
15111;DHT22;7656;51.954;7.998;2022-09-09T10:08:45;31.00;99.90
15111;DHT22;7656;51.954;7.998;2022-09-09T10:13:44;30.10;99.90
15111;DHT22;7656;51.954;7.998;2022-09-09T10:22:51;29.30;99.90
15111;DHT22;7656;51.954;7.998;2022-09-09T10:27:34;29.30;99.90
15111;DHT22;7656;51.954;7.998;2022-09-09T10:36:52;28.80;99.90
15111;DHT22;7656;51.954;7.998;2022-09-09T10:46:34;29.10;99.90
15111;DHT22;7656;51.954;7.998;2022-09-09T10:55:56;29.90;98.80
15111;DHT22;7656;51.954;7.998;2022-09-09T11:00:23;29.10;99.70
15111;DHT22;7656;51.954;7.998;2022-09-09T11:04:57;29.50;99.20
15111;DHT22;7656;51.954;7.998;2022-09-09T11:18:19;32.70;96.00
15111;DHT22;7656;51.954;7.998;2022-09-09T11:27:31;35.10;89.30
15111;DHT22;7656;51.954;7.998;2022-09-09T11:32:20;33.20;88.70
15111;DHT22;7656;51.954;7.998;2022-09-09T11:41:37;29.30;94.00
15111;DHT22;7656;51.954;7.998;2022-09-09T11:46:01;30.30;92.70
15111;DHT22;7656;51.954;7.998;2022-09-09T11:54:47;29.90;92.20
15111;DHT22;7656;51.954;7.998;2022-09-09T11:59:49;28.20;92.60
15111;DHT22;7656;51.954;7.998;2022-09-09T12:04:14;27.90;93.40
15111;DHT22;7656;51.954;7.998;2022-09-09T12:13:59;29.90;91.80
15111;DHT22;7656;51.954;7.998;2022-09-09T12:28:18;29.30;91.10
15111;DHT22;7656;51.954;7.998;2022-09-09T12:32:41;28.90;91.30
15111;DHT22;7656;51.954;7.998;2022-09-09T12:41:54;30.90;89.80
15111;DHT22;7656;51.954;7.998;2022-09-09T12:46:34;32.10;87.80
15111;DHT22;7656;51.954;7.998;2022-09-09T12:50:57;32.50;84.50
15111;DHT22;7656;51.954;7.998;2022-09-09T12:55:21;32.10;83.50
15111;DHT22;7656;51.954;7.998;2022-09-09T12:59:45;31.90;82.90
15111;DHT22;7656;51.954;7.998;2022-09-09T13:04:20;30.60;84.30
15111;DHT22;7656;51.954;7.998;2022-09-09T13:08:42;28.90;87.80
15111;DHT22;7656;51.954;7.998;2022-09-09T13:13:12;28.30;90.20
15111;DHT22;7656;51.954;7.998;2022-09-09T13:17:35;29.00;88.90
15111;DHT22;7656;51.954;7.998;2022-09-09T13:21:56;29.70;87.90
15111;DHT22;7656;51.954;7.998;2022-09-09T13:26:26;28.10;90.70
15111;DHT22;7656;51.954;7.998;2022-09-09T13:30:57;26.90;92.10
15111;DHT22;7656;51.954;7.998;2022-09-09T13:35:23;26.80;92.80
15111;DHT22;7656;51.954;7.998;2022-09-09T13:39:51;26.00;93.80
15111;DHT22;7656;51.954;7.998;2022-09-09T13:44:27;24.70;95.80
15111;DHT22;7656;51.954;7.998;2022-09-09T13:48:57;24.20;97.00
15111;DHT22;7656;51.954;7.998;2022-09-09T13:53:19;24.00;97.70
15111;DHT22;7656;51.954;7.998;2022-09-09T13:57:50;23.60;98.30
15111;DHT22;7656;51.954;7.998;2022-09-09T14:02:13;23.70;99.90
15111;DHT22;7656;51.954;7.998;2022-09-09T14:06:35;23.80;99.90
15111;DHT22;7656;51.954;7.998;2022-09-09T14:11:00;23.30;99.90
15111;DHT22;7656;51.954;7.998;2022-09-09T14:15:21;23.80;99.90
15111;DHT22;7656;51.954;7.998;2022-09-09T14:19:42;24.70;99.90
15111;DHT22;7656;51.954;7.998;2022-09-09T14:24:04;24.10;99.90
15111;DHT22;7656;51.954;7.998;2022-09-09T14:28:25;22.60;99.90
15111;DHT22;7656;51.954;7.998;2022-09-09T14:32:46;22.50;99.90
15111;DHT22;7656;51.954;7.998;2022-09-09T14:37:07;22.80;99.90
15111;DHT22;7656;51.954;7.998;2022-09-09T14:41:28;23.00;99.90
15111;DHT22;7656;51.954;7.998;2022-09-09T14:45:50;22.70;99.90
15111;DHT22;7656;51.954;7.998;2022-09-09T14:50:12;22.60;99.90
15111;DHT22;7656;51.954;7.998;2022-09-09T14:54:33;22.60;99.90
15111;DHT22;7656;51.954;7.998;2022-09-09T14:58:57;23.10;99.90
15111;DHT22;7656;51.954;7.998;2022-09-09T15:03:18;23.80;99.90
15111;DHT22;7656;51.954;7.998;2022-09-09T15:07:40;24.10;99.90
15111;DHT22;7656;51.954;7.998;2022-09-09T15:12:01;23.40;99.90
15111;DHT22;7656;51.954;7.998;2022-09-09T15:16:26;23.20;99.90
15111;DHT22;7656;51.954;7.998;2022-09-09T15:20:48;22.80;99.90
15111;DHT22;7656;51.954;7.998;2022-09-09T15:25:09;22.20;99.90
15111;DHT22;7656;51.954;7.998;2022-09-09T15:29:30;22.10;99.90
15111;DHT22;7656;51.954;7.998;2022-09-09T15:33:57;22.10;99.90
15111;DHT22;7656;51.954;7.998;2022-09-09T15:38:21;21.70;99.90
15111;DHT22;7656;51.954;7.998;2022-09-09T15:42:42;21.90;99.90
15111;DHT22;7656;51.954;7.998;2022-09-09T15:47:03;22.10;99.90
15111;DHT22;7656;51.954;7.998;2022-09-09T15:51:25;22.40;99.90
15111;DHT22;7656;51.954;7.998;2022-09-09T15:55:46;22.60;99.90
15111;DHT22;7656;51.954;7.998;2022-09-09T16:00:08;22.50;99.90
15111;DHT22;7656;51.954;7.998;2022-09-09T16:04:29;22.80;99.90
15111;DHT22;7656;51.954;7.998;2022-09-09T16:08:52;22.90;99.90
15111;DHT22;7656;51.954;7.998;2022-09-09T16:13:14;22.90;99.90
15111;DHT22;7656;51.954;7.998;2022-09-09T16:17:35;22.70;99.90
15111;DHT22;7656;51.954;7.998;2022-09-09T16:21:58;22.60;99.90
15111;DHT22;7656;51.954;7.998;2022-09-09T16:26:19;22.40;99.90
15111;DHT22;7656;51.954;7.998;2022-09-09T16:30:41;22.30;99.90
15111;DHT22;7656;51.954;7.998;2022-09-09T16:35:02;22.10;99.90
15111;DHT22;7656;51.954;7.998;2022-09-09T16:39:23;22.00;99.90
15111;DHT22;7656;51.954;7.998;2022-09-09T16:43:45;21.60;99.90
15111;DHT22;7656;51.954;7.998;2022-09-09T16:48:06;21.10;99.90
15111;DHT22;7656;51.954;7.998;2022-09-09T16:52:27;21.10;99.90
15111;DHT22;7656;51.954;7.998;2022-09-09T16:56:48;20.70;99.90
15111;DHT22;7656;51.954;7.998;2022-09-09T17:01:09;20.20;99.90
15111;DHT22;7656;51.954;7.998;2022-09-09T17:05:39;19.70;99.90
15111;DHT22;7656;51.954;7.998;2022-09-09T17:10:02;19.60;99.90
15111;DHT22;7656;51.954;7.998;2022-09-09T17:14:23;19.80;99.90
15111;DHT22;7656;51.954;7.998;2022-09-09T17:18:45;19.60;99.90
15111;DHT22;7656;51.954;7.998;2022-09-09T17:23:08;19.60;99.90
15111;DHT22;7656;51.954;7.998;2022-09-09T17:27:30;19.30;99.90
15111;DHT22;7656;51.954;7.998;2022-09-09T17:31:54;18.70;99.90
15111;DHT22;7656;51.954;7.998;2022-09-09T17:36:18;18.40;99.90
15111;DHT22;7656;51.954;7.998;2022-09-09T17:40:42;18.10;99.90
15111;DHT22;7656;51.954;7.998;2022-09-09T17:45:04;17.80;99.90
15111;DHT22;7656;51.954;7.998;2022-09-09T17:49:26;17.60;99.90
15111;DHT22;7656;51.954;7.998;2022-09-09T17:53:49;17.50;99.90
15111;DHT22;7656;51.954;7.998;2022-09-09T17:58:10;17.40;99.90
15111;DHT22;7656;51.954;7.998;2022-09-09T18:02:31;17.10;99.90
15111;DHT22;7656;51.954;7.998;2022-09-09T18:06:53;17.00;99.90
15111;DHT22;7656;51.954;7.998;2022-09-09T18:11:14;16.90;99.90
15111;DHT22;7656;51.954;7.998;2022-09-09T18:15:37;17.10;99.90
15111;DHT22;7656;51.954;7.998;2022-09-09T18:19:58;16.80;99.90
15111;DHT22;7656;51.954;7.998;2022-09-09T18:24:21;16.70;99.90
15111;DHT22;7656;51.954;7.998;2022-09-09T18:28:50;16.40;99.90
15111;DHT22;7656;51.954;7.998;2022-09-09T18:33:12;16.60;99.90
15111;DHT22;7656;51.954;7.998;2022-09-09T18:37:34;16.80;99.90
15111;DHT22;7656;51.954;7.998;2022-09-09T18:41:58;16.80;99.90
15111;DHT22;7656;51.954;7.998;2022-09-09T18:46:21;16.80;99.90
15111;DHT22;7656;51.954;7.998;2022-09-09T18:50:43;16.50;99.90
15111;DHT22;7656;51.954;7.998;2022-09-09T18:55:04;16.50;99.90
15111;DHT22;7656;51.954;7.998;2022-09-09T18:59:26;16.40;99.90
15111;DHT22;7656;51.954;7.998;2022-09-09T19:03:49;16.30;99.90
15111;DHT22;7656;51.954;7.998;2022-09-09T19:08:11;16.30;99.90
15111;DHT22;7656;51.954;7.998;2022-09-09T19:12:32;16.40;99.90
15111;DHT22;7656;51.954;7.998;2022-09-09T19:16:53;16.20;99.90
15111;DHT22;7656;51.954;7.998;2022-09-09T19:25:39;16.70;99.90
15111;DHT22;7656;51.954;7.998;2022-09-09T19:30:00;16.40;99.90
15111;DHT22;7656;51.954;7.998;2022-09-09T19:34:22;16.50;99.90
15111;DHT22;7656;51.954;7.998;2022-09-09T19:38:47;16.60;99.90
15111;DHT22;7656;51.954;7.998;2022-09-09T19:43:08;16.70;99.90
15111;DHT22;7656;51.954;7.998;2022-09-09T19:47:29;16.80;99.90
15111;DHT22;7656;51.954;7.998;2022-09-09T19:51:50;16.70;99.90
15111;DHT22;7656;51.954;7.998;2022-09-09T19:56:12;16.70;99.90
15111;DHT22;7656;51.954;7.998;2022-09-09T20:00:33;16.70;99.90
15111;DHT22;7656;51.954;7.998;2022-09-09T20:04:55;16.80;99.90
15111;DHT22;7656;51.954;7.998;2022-09-09T20:09:16;17.00;99.90
15111;DHT22;7656;51.954;7.998;2022-09-09T20:13:39;17.00;99.90
15111;DHT22;7656;51.954;7.998;2022-09-09T20:18:01;17.10;99.90
15111;DHT22;7656;51.954;7.998;2022-09-09T20:22:24;17.20;99.90
15111;DHT22;7656;51.954;7.998;2022-09-09T20:26:46;17.10;99.90
15111;DHT22;7656;51.954;7.998;2022-09-09T20:31:12;17.40;99.90
15111;DHT22;7656;51.954;7.998;2022-09-09T20:35:35;17.50;99.90
15111;DHT22;7656;51.954;7.998;2022-09-09T20:39:56;17.40;99.90
15111;DHT22;7656;51.954;7.998;2022-09-09T20:44:20;17.40;99.90
15111;DHT22;7656;51.954;7.998;2022-09-09T20:48:44;17.20;99.90
15111;DHT22;7656;51.954;7.998;2022-09-09T20:53:06;17.40;99.90
15111;DHT22;7656;51.954;7.998;2022-09-09T20:57:27;17.50;99.90
15111;DHT22;7656;51.954;7.998;2022-09-09T21:01:49;17.70;99.90
15111;DHT22;7656;51.954;7.998;2022-09-09T21:06:11;17.70;99.90
15111;DHT22;7656;51.954;7.998;2022-09-09T21:10:33;17.70;99.90
15111;DHT22;7656;51.954;7.998;2022-09-09T21:14:54;17.70;99.90
15111;DHT22;7656;51.954;7.998;2022-09-09T21:19:16;17.80;99.90
15111;DHT22;7656;51.954;7.998;2022-09-09T21:23:38;17.70;99.90
15111;DHT22;7656;51.954;7.998;2022-09-09T21:27:59;17.80;99.90
15111;DHT22;7656;51.954;7.998;2022-09-09T21:32:20;17.40;99.90
15111;DHT22;7656;51.954;7.998;2022-09-09T21:36:41;17.30;99.90
15111;DHT22;7656;51.954;7.998;2022-09-09T21:41:04;17.30;99.90
15111;DHT22;7656;51.954;7.998;2022-09-09T21:45:26;17.40;99.90
15111;DHT22;7656;51.954;7.998;2022-09-09T21:49:47;17.60;99.90
15111;DHT22;7656;51.954;7.998;2022-09-09T21:54:09;17.60;99.90
15111;DHT22;7656;51.954;7.998;2022-09-09T21:58:30;17.50;99.90
15111;DHT22;7656;51.954;7.998;2022-09-09T22:02:51;17.30;99.90
15111;DHT22;7656;51.954;7.998;2022-09-09T22:07:12;17.10;99.90
15111;DHT22;7656;51.954;7.998;2022-09-09T22:11:36;16.70;99.90
15111;DHT22;7656;51.954;7.998;2022-09-09T22:15:57;16.80;99.90
15111;DHT22;7656;51.954;7.998;2022-09-09T22:20:23;16.80;99.90
15111;DHT22;7656;51.954;7.998;2022-09-09T22:24:44;16.90;99.90
15111;DHT22;7656;51.954;7.998;2022-09-09T22:29:06;16.80;99.90
15111;DHT22;7656;51.954;7.998;2022-09-09T22:33:27;16.80;99.90
15111;DHT22;7656;51.954;7.998;2022-09-09T22:37:49;16.60;99.90
15111;DHT22;7656;51.954;7.998;2022-09-09T22:42:10;16.50;99.90
15111;DHT22;7656;51.954;7.998;2022-09-09T22:46:32;16.60;99.90
15111;DHT22;7656;51.954;7.998;2022-09-09T22:50:53;16.70;99.90
15111;DHT22;7656;51.954;7.998;2022-09-09T22:55:23;16.60;99.90
15111;DHT22;7656;51.954;7.998;2022-09-09T22:59:46;16.60;99.90
15111;DHT22;7656;51.954;7.998;2022-09-09T23:04:07;16.70;99.90
15111;DHT22;7656;51.954;7.998;2022-09-09T23:08:31;16.60;99.90
15111;DHT22;7656;51.954;7.998;2022-09-09T23:12:55;16.50;99.90
15111;DHT22;7656;51.954;7.998;2022-09-09T23:17:17;16.30;99.90
15111;DHT22;7656;51.954;7.998;2022-09-09T23:21:42;16.20;99.90
15111;DHT22;7656;51.954;7.998;2022-09-09T23:26:04;16.40;99.90
15111;DHT22;7656;51.954;7.998;2022-09-09T23:30:27;16.30;99.90
15111;DHT22;7656;51.954;7.998;2022-09-09T23:34:49;16.20;99.90
15111;DHT22;7656;51.954;7.998;2022-09-09T23:39:11;16.40;99.90
15111;DHT22;7656;51.954;7.998;2022-09-09T23:43:33;16.60;99.90
15111;DHT22;7656;51.954;7.998;2022-09-09T23:48:03;16.60;99.90
15111;DHT22;7656;51.954;7.998;2022-09-09T23:52:24;16.60;99.90
15111;DHT22;7656;51.954;7.998;2022-09-09T23:56:46;16.60;99.90
